sensor_id;sensor_type;location;lat;lon;timestamp;P1;durP1;ratioP1;P2;durP2;ratioP2
42018;SDS011;27703;51.980;5.848;2022-12-18T00:01:03;63.55;;;26.95;;
42018;SDS011;27703;51.980;5.848;2022-12-18T00:03:34;67.65;;;27.67;;
42018;SDS011;27703;51.980;5.848;2022-12-18T00:06:00;59.08;;;27.15;;
42018;SDS011;27703;51.980;5.848;2022-12-18T00:08:26;62.22;;;28.10;;
42018;SDS011;27703;51.980;5.848;2022-12-18T00:10:53;66.80;;;30.17;;
42018;SDS011;27703;51.980;5.848;2022-12-18T00:13:18;75.60;;;32.60;;
42018;SDS011;27703;51.980;5.848;2022-12-18T00:15:44;65.03;;;28.00;;
42018;SDS011;27703;51.980;5.848;2022-12-18T00:18:09;68.38;;;28.58;;
42018;SDS011;27703;51.980;5.848;2022-12-18T00:20:36;70.78;;;28.00;;
42018;SDS011;27703;51.980;5.848;2022-12-18T00:23:03;71.05;;;30.05;;
42018;SDS011;27703;51.980;5.848;2022-12-18T00:25:29;72.95;;;32.00;;
42018;SDS011;27703;51.980;5.848;2022-12-18T00:27:54;69.03;;;29.85;;
42018;SDS011;27703;51.980;5.848;2022-12-18T00:30:20;61.70;;;28.13;;
42018;SDS011;27703;51.980;5.848;2022-12-18T00:32:46;61.10;;;28.45;;
42018;SDS011;27703;51.980;5.848;2022-12-18T00:35:11;62.00;;;26.13;;
42018;SDS011;27703;51.980;5.848;2022-12-18T00:37:37;57.45;;;24.58;;
42018;SDS011;27703;51.980;5.848;2022-12-18T00:40:02;55.85;;;25.80;;
42018;SDS011;27703;51.980;5.848;2022-12-18T00:42:28;58.20;;;26.23;;
42018;SDS011;27703;51.980;5.848;2022-12-18T00:45:13;53.85;;;24.67;;
42018;SDS011;27703;51.980;5.848;2022-12-18T00:47:38;50.78;;;23.33;;
42018;SDS011;27703;51.980;5.848;2022-12-18T00:50:04;51.55;;;25.50;;
42018;SDS011;27703;51.980;5.848;2022-12-18T00:52:30;45.75;;;22.27;;
42018;SDS011;27703;51.980;5.848;2022-12-18T00:54:56;49.60;;;25.02;;
42018;SDS011;27703;51.980;5.848;2022-12-18T00:57:21;51.90;;;26.50;;
42018;SDS011;27703;51.980;5.848;2022-12-18T00:59:47;57.92;;;26.48;;
42018;SDS011;27703;51.980;5.848;2022-12-18T01:02:12;50.80;;;25.73;;
42018;SDS011;27703;51.980;5.848;2022-12-18T01:04:38;52.20;;;25.20;;
42018;SDS011;27703;51.980;5.848;2022-12-18T01:07:03;56.55;;;26.80;;
42018;SDS011;27703;51.980;5.848;2022-12-18T01:09:29;53.47;;;26.08;;
42018;SDS011;27703;51.980;5.848;2022-12-18T01:11:54;55.00;;;25.95;;
42018;SDS011;27703;51.980;5.848;2022-12-18T01:14:20;45.88;;;23.02;;
42018;SDS011;27703;51.980;5.848;2022-12-18T01:16:46;47.83;;;21.50;;
42018;SDS011;27703;51.980;5.848;2022-12-18T01:19:11;52.63;;;24.27;;
42018;SDS011;27703;51.980;5.848;2022-12-18T01:21:37;49.33;;;24.25;;
42018;SDS011;27703;51.980;5.848;2022-12-18T01:24:02;50.85;;;24.27;;
42018;SDS011;27703;51.980;5.848;2022-12-18T01:26:29;53.08;;;26.38;;
42018;SDS011;27703;51.980;5.848;2022-12-18T01:28:57;48.10;;;22.92;;
42018;SDS011;27703;51.980;5.848;2022-12-18T01:31:24;48.42;;;24.80;;
42018;SDS011;27703;51.980;5.848;2022-12-18T01:33:54;43.35;;;21.00;;
42018;SDS011;27703;51.980;5.848;2022-12-18T01:36:21;49.10;;;23.85;;
42018;SDS011;27703;51.980;5.848;2022-12-18T01:38:49;49.53;;;23.02;;
42018;SDS011;27703;51.980;5.848;2022-12-18T01:41:16;39.75;;;19.88;;
42018;SDS011;27703;51.980;5.848;2022-12-18T01:43:48;41.42;;;20.70;;
42018;SDS011;27703;51.980;5.848;2022-12-18T01:46:17;47.03;;;20.75;;
42018;SDS011;27703;51.980;5.848;2022-12-18T01:48:44;41.90;;;20.60;;
42018;SDS011;27703;51.980;5.848;2022-12-18T01:51:12;41.65;;;21.98;;
42018;SDS011;27703;51.980;5.848;2022-12-18T01:53:38;43.03;;;21.98;;
42018;SDS011;27703;51.980;5.848;2022-12-18T01:56:06;40.70;;;20.42;;
42018;SDS011;27703;51.980;5.848;2022-12-18T01:58:35;39.35;;;20.83;;
42018;SDS011;27703;51.980;5.848;2022-12-18T02:01:22;41.20;;;20.35;;
42018;SDS011;27703;51.980;5.848;2022-12-18T02:03:48;39.50;;;20.40;;
42018;SDS011;27703;51.980;5.848;2022-12-18T02:06:31;42.58;;;20.98;;
42018;SDS011;27703;51.980;5.848;2022-12-18T02:09:07;46.95;;;22.90;;
42018;SDS011;27703;51.980;5.848;2022-12-18T02:11:42;47.45;;;22.80;;
42018;SDS011;27703;51.980;5.848;2022-12-18T02:14:22;40.20;;;19.90;;
42018;SDS011;27703;51.980;5.848;2022-12-18T02:19:35;44.40;;;20.70;;
42018;SDS011;27703;51.980;5.848;2022-12-18T02:27:36;41.13;;;17.73;;
42018;SDS011;27703;51.980;5.848;2022-12-18T02:30:04;38.15;;;18.27;;
42018;SDS011;27703;51.980;5.848;2022-12-18T02:32:36;44.53;;;18.08;;
42018;SDS011;27703;51.980;5.848;2022-12-18T02:35:05;41.33;;;20.40;;
42018;SDS011;27703;51.980;5.848;2022-12-18T02:37:34;33.88;;;18.33;;
42018;SDS011;27703;51.980;5.848;2022-12-18T02:40:01;44.53;;;20.73;;
42018;SDS011;27703;51.980;5.848;2022-12-18T02:42:28;40.97;;;18.25;;
42018;SDS011;27703;51.980;5.848;2022-12-18T02:44:54;30.90;;;16.65;;
42018;SDS011;27703;51.980;5.848;2022-12-18T02:47:24;37.17;;;19.13;;
42018;SDS011;27703;51.980;5.848;2022-12-18T02:52:37;30.35;;;15.52;;
42018;SDS011;27703;51.980;5.848;2022-12-18T02:58:03;34.15;;;15.77;;
42018;SDS011;27703;51.980;5.848;2022-12-18T03:00:41;30.30;;;15.00;;
42018;SDS011;27703;51.980;5.848;2022-12-18T03:03:51;30.85;;;15.50;;
42018;SDS011;27703;51.980;5.848;2022-12-18T03:06:30;28.33;;;14.13;;
42018;SDS011;27703;51.980;5.848;2022-12-18T03:09:02;33.92;;;17.70;;
42018;SDS011;27703;51.980;5.848;2022-12-18T03:11:36;30.48;;;15.07;;
42018;SDS011;27703;51.980;5.848;2022-12-18T03:14:24;31.30;;;14.73;;
42018;SDS011;27703;51.980;5.848;2022-12-18T03:16:54;30.33;;;16.23;;
42018;SDS011;27703;51.980;5.848;2022-12-18T03:21:53;27.77;;;14.95;;
42018;SDS011;27703;51.980;5.848;2022-12-18T03:24:21;34.30;;;17.35;;
42018;SDS011;27703;51.980;5.848;2022-12-18T03:26:55;34.72;;;17.38;;
42018;SDS011;27703;51.980;5.848;2022-12-18T03:29:28;31.45;;;16.80;;
42018;SDS011;27703;51.980;5.848;2022-12-18T03:32:01;31.85;;;15.63;;
42018;SDS011;27703;51.980;5.848;2022-12-18T03:34:31;33.58;;;16.48;;
42018;SDS011;27703;51.980;5.848;2022-12-18T03:37:02;31.38;;;15.43;;
42018;SDS011;27703;51.980;5.848;2022-12-18T03:39:28;33.78;;;15.52;;
42018;SDS011;27703;51.980;5.848;2022-12-18T03:42:03;37.28;;;17.40;;
42018;SDS011;27703;51.980;5.848;2022-12-18T03:47:24;29.38;;;15.43;;
42018;SDS011;27703;51.980;5.848;2022-12-18T03:50:17;33.22;;;16.85;;
42018;SDS011;27703;51.980;5.848;2022-12-18T03:52:49;34.05;;;16.00;;
42018;SDS011;27703;51.980;5.848;2022-12-18T03:55:19;25.92;;;15.15;;
42018;SDS011;27703;51.980;5.848;2022-12-18T03:57:47;30.58;;;15.82;;
42018;SDS011;27703;51.980;5.848;2022-12-18T04:00:15;26.83;;;13.82;;
42018;SDS011;27703;51.980;5.848;2022-12-18T04:02:43;25.63;;;13.80;;
42018;SDS011;27703;51.980;5.848;2022-12-18T04:05:13;30.98;;;15.90;;
42018;SDS011;27703;51.980;5.848;2022-12-18T04:07:40;30.13;;;15.30;;
42018;SDS011;27703;51.980;5.848;2022-12-18T04:10:07;29.52;;;13.68;;
42018;SDS011;27703;51.980;5.848;2022-12-18T04:12:37;33.60;;;14.03;;
42018;SDS011;27703;51.980;5.848;2022-12-18T04:15:03;29.25;;;16.02;;
42018;SDS011;27703;51.980;5.848;2022-12-18T04:17:29;29.13;;;13.80;;
42018;SDS011;27703;51.980;5.848;2022-12-18T04:19:54;28.83;;;16.02;;
42018;SDS011;27703;51.980;5.848;2022-12-18T04:22:20;27.95;;;14.68;;
42018;SDS011;27703;51.980;5.848;2022-12-18T04:24:45;26.77;;;12.23;;
42018;SDS011;27703;51.980;5.848;2022-12-18T04:27:11;32.42;;;15.48;;
42018;SDS011;27703;51.980;5.848;2022-12-18T04:29:37;30.30;;;14.13;;
42018;SDS011;27703;51.980;5.848;2022-12-18T04:32:03;27.15;;;14.13;;
42018;SDS011;27703;51.980;5.848;2022-12-18T04:34:28;23.10;;;13.48;;
42018;SDS011;27703;51.980;5.848;2022-12-18T04:36:54;31.63;;;15.27;;
42018;SDS011;27703;51.980;5.848;2022-12-18T04:39:19;27.63;;;13.48;;
42018;SDS011;27703;51.980;5.848;2022-12-18T04:41:45;24.60;;;12.20;;
42018;SDS011;27703;51.980;5.848;2022-12-18T04:44:11;25.95;;;12.80;;
42018;SDS011;27703;51.980;5.848;2022-12-18T04:46:36;26.63;;;12.85;;
42018;SDS011;27703;51.980;5.848;2022-12-18T04:49:02;28.85;;;13.25;;
42018;SDS011;27703;51.980;5.848;2022-12-18T04:51:27;27.20;;;13.60;;
42018;SDS011;27703;51.980;5.848;2022-12-18T04:53:53;26.70;;;13.68;;
42018;SDS011;27703;51.980;5.848;2022-12-18T04:56:19;24.55;;;12.52;;
42018;SDS011;27703;51.980;5.848;2022-12-18T04:58:44;23.92;;;12.90;;
42018;SDS011;27703;51.980;5.848;2022-12-18T05:01:11;26.15;;;13.30;;
42018;SDS011;27703;51.980;5.848;2022-12-18T05:03:37;23.48;;;12.63;;
42018;SDS011;27703;51.980;5.848;2022-12-18T05:06:04;28.35;;;13.05;;
42018;SDS011;27703;51.980;5.848;2022-12-18T05:08:30;22.48;;;12.32;;
42018;SDS011;27703;51.980;5.848;2022-12-18T05:11:00;22.25;;;12.13;;
42018;SDS011;27703;51.980;5.848;2022-12-18T05:13:28;23.95;;;11.60;;
42018;SDS011;27703;51.980;5.848;2022-12-18T05:15:54;21.92;;;10.55;;
42018;SDS011;27703;51.980;5.848;2022-12-18T05:18:20;21.55;;;10.65;;
42018;SDS011;27703;51.980;5.848;2022-12-18T05:20:46;23.77;;;11.27;;
42018;SDS011;27703;51.980;5.848;2022-12-18T05:23:12;22.90;;;12.02;;
42018;SDS011;27703;51.980;5.848;2022-12-18T05:25:37;24.58;;;12.23;;
42018;SDS011;27703;51.980;5.848;2022-12-18T05:28:03;19.95;;;10.70;;
42018;SDS011;27703;51.980;5.848;2022-12-18T05:30:29;19.60;;;10.10;;
42018;SDS011;27703;51.980;5.848;2022-12-18T05:32:54;20.35;;;11.07;;
42018;SDS011;27703;51.980;5.848;2022-12-18T05:35:20;16.13;;;9.50;;
42018;SDS011;27703;51.980;5.848;2022-12-18T05:37:45;16.80;;;9.68;;
42018;SDS011;27703;51.980;5.848;2022-12-18T05:40:11;21.55;;;10.98;;
42018;SDS011;27703;51.980;5.848;2022-12-18T05:42:37;21.42;;;11.77;;
42018;SDS011;27703;51.980;5.848;2022-12-18T05:45:03;20.10;;;10.88;;
42018;SDS011;27703;51.980;5.848;2022-12-18T05:47:29;20.33;;;10.50;;
42018;SDS011;27703;51.980;5.848;2022-12-18T05:49:55;18.45;;;9.32;;
42018;SDS011;27703;51.980;5.848;2022-12-18T05:52:20;17.63;;;10.38;;
42018;SDS011;27703;51.980;5.848;2022-12-18T05:54:46;17.23;;;9.95;;
42018;SDS011;27703;51.980;5.848;2022-12-18T05:57:12;17.70;;;9.32;;
42018;SDS011;27703;51.980;5.848;2022-12-18T05:59:37;20.63;;;10.77;;
42018;SDS011;27703;51.980;5.848;2022-12-18T06:02:03;24.13;;;11.60;;
42018;SDS011;27703;51.980;5.848;2022-12-18T06:04:29;21.25;;;11.20;;
42018;SDS011;27703;51.980;5.848;2022-12-18T06:06:54;19.27;;;10.00;;
42018;SDS011;27703;51.980;5.848;2022-12-18T06:09:20;21.85;;;10.55;;
42018;SDS011;27703;51.980;5.848;2022-12-18T06:11:45;18.15;;;9.90;;
42018;SDS011;27703;51.980;5.848;2022-12-18T06:14:11;21.05;;;11.93;;
42018;SDS011;27703;51.980;5.848;2022-12-18T06:16:36;18.17;;;10.13;;
42018;SDS011;27703;51.980;5.848;2022-12-18T06:19:03;22.25;;;11.75;;
42018;SDS011;27703;51.980;5.848;2022-12-18T06:21:30;25.13;;;10.75;;
42018;SDS011;27703;51.980;5.848;2022-12-18T06:23:57;27.52;;;12.57;;
42018;SDS011;27703;51.980;5.848;2022-12-18T06:26:23;19.23;;;11.38;;
42018;SDS011;27703;51.980;5.848;2022-12-18T06:28:49;20.23;;;11.02;;
42018;SDS011;27703;51.980;5.848;2022-12-18T06:31:14;17.63;;;9.50;;
42018;SDS011;27703;51.980;5.848;2022-12-18T06:33:40;20.83;;;10.60;;
42018;SDS011;27703;51.980;5.848;2022-12-18T06:36:07;21.83;;;12.23;;
42018;SDS011;27703;51.980;5.848;2022-12-18T06:38:37;20.17;;;9.80;;
42018;SDS011;27703;51.980;5.848;2022-12-18T06:41:10;22.83;;;11.07;;
42018;SDS011;27703;51.980;5.848;2022-12-18T06:43:37;21.48;;;11.68;;
42018;SDS011;27703;51.980;5.848;2022-12-18T06:46:03;19.77;;;9.88;;
42018;SDS011;27703;51.980;5.848;2022-12-18T06:48:29;21.17;;;10.50;;
42018;SDS011;27703;51.980;5.848;2022-12-18T06:50:55;20.42;;;10.95;;
42018;SDS011;27703;51.980;5.848;2022-12-18T06:53:21;22.65;;;12.18;;
42018;SDS011;27703;51.980;5.848;2022-12-18T06:55:47;21.52;;;10.23;;
42018;SDS011;27703;51.980;5.848;2022-12-18T06:58:12;18.40;;;10.27;;
42018;SDS011;27703;51.980;5.848;2022-12-18T07:00:38;22.45;;;11.32;;
42018;SDS011;27703;51.980;5.848;2022-12-18T07:03:03;22.60;;;11.90;;
42018;SDS011;27703;51.980;5.848;2022-12-18T07:05:29;23.13;;;12.45;;
42018;SDS011;27703;51.980;5.848;2022-12-18T07:07:55;19.70;;;11.13;;
42018;SDS011;27703;51.980;5.848;2022-12-18T07:10:20;16.67;;;9.93;;
42018;SDS011;27703;51.980;5.848;2022-12-18T07:12:46;21.33;;;11.35;;
42018;SDS011;27703;51.980;5.848;2022-12-18T07:15:11;24.95;;;11.88;;
42018;SDS011;27703;51.980;5.848;2022-12-18T07:17:37;18.13;;;10.85;;
42018;SDS011;27703;51.980;5.848;2022-12-18T07:20:03;23.35;;;12.30;;
42018;SDS011;27703;51.980;5.848;2022-12-18T07:22:29;25.00;;;11.95;;
42018;SDS011;27703;51.980;5.848;2022-12-18T07:24:54;20.23;;;11.88;;
42018;SDS011;27703;51.980;5.848;2022-12-18T07:27:20;26.23;;;12.90;;
42018;SDS011;27703;51.980;5.848;2022-12-18T07:29:46;25.08;;;11.80;;
42018;SDS011;27703;51.980;5.848;2022-12-18T07:32:11;20.95;;;11.32;;
42018;SDS011;27703;51.980;5.848;2022-12-18T07:34:37;24.83;;;12.63;;
42018;SDS011;27703;51.980;5.848;2022-12-18T07:37:03;20.52;;;11.13;;
42018;SDS011;27703;51.980;5.848;2022-12-18T07:39:28;22.70;;;11.43;;
42018;SDS011;27703;51.980;5.848;2022-12-18T07:41:54;20.13;;;11.25;;
42018;SDS011;27703;51.980;5.848;2022-12-18T07:44:38;19.38;;;11.80;;
42018;SDS011;27703;51.980;5.848;2022-12-18T07:47:04;20.15;;;11.52;;
42018;SDS011;27703;51.980;5.848;2022-12-18T07:49:29;22.83;;;11.75;;
42018;SDS011;27703;51.980;5.848;2022-12-18T07:51:55;23.23;;;12.68;;
42018;SDS011;27703;51.980;5.848;2022-12-18T07:54:22;22.25;;;12.00;;
42018;SDS011;27703;51.980;5.848;2022-12-18T07:56:48;21.65;;;11.82;;
42018;SDS011;27703;51.980;5.848;2022-12-18T07:59:14;19.40;;;11.32;;
42018;SDS011;27703;51.980;5.848;2022-12-18T08:01:39;18.75;;;11.30;;
42018;SDS011;27703;51.980;5.848;2022-12-18T08:04:05;22.88;;;10.45;;
42018;SDS011;27703;51.980;5.848;2022-12-18T08:06:31;18.27;;;9.90;;
42018;SDS011;27703;51.980;5.848;2022-12-18T08:08:56;20.35;;;10.77;;
42018;SDS011;27703;51.980;5.848;2022-12-18T08:11:23;16.50;;;10.50;;
42018;SDS011;27703;51.980;5.848;2022-12-18T08:13:49;18.52;;;11.18;;
42018;SDS011;27703;51.980;5.848;2022-12-18T08:16:16;20.05;;;10.48;;
42018;SDS011;27703;51.980;5.848;2022-12-18T08:18:42;18.75;;;11.13;;
42018;SDS011;27703;51.980;5.848;2022-12-18T08:23:40;18.98;;;11.45;;
42018;SDS011;27703;51.980;5.848;2022-12-18T08:26:06;18.23;;;10.57;;
42018;SDS011;27703;51.980;5.848;2022-12-18T08:28:32;23.52;;;11.93;;
42018;SDS011;27703;51.980;5.848;2022-12-18T08:30:58;19.48;;;10.25;;
42018;SDS011;27703;51.980;5.848;2022-12-18T08:33:24;19.13;;;11.13;;
42018;SDS011;27703;51.980;5.848;2022-12-18T08:35:51;18.52;;;9.77;;
42018;SDS011;27703;51.980;5.848;2022-12-18T08:38:17;19.13;;;9.73;;
42018;SDS011;27703;51.980;5.848;2022-12-18T08:40:42;21.40;;;10.75;;
42018;SDS011;27703;51.980;5.848;2022-12-18T08:43:09;19.45;;;10.95;;
42018;SDS011;27703;51.980;5.848;2022-12-18T08:45:53;19.15;;;10.57;;
42018;SDS011;27703;51.980;5.848;2022-12-18T08:48:19;18.50;;;8.85;;
42018;SDS011;27703;51.980;5.848;2022-12-18T08:50:53;15.50;;;9.77;;
42018;SDS011;27703;51.980;5.848;2022-12-18T08:53:24;17.42;;;9.32;;
42018;SDS011;27703;51.980;5.848;2022-12-18T08:55:49;20.55;;;10.65;;
42018;SDS011;27703;51.980;5.848;2022-12-18T08:58:15;19.50;;;9.68;;
42018;SDS011;27703;51.980;5.848;2022-12-18T09:00:41;19.92;;;10.35;;
42018;SDS011;27703;51.980;5.848;2022-12-18T09:03:13;21.58;;;10.60;;
42018;SDS011;27703;51.980;5.848;2022-12-18T09:05:43;19.17;;;11.00;;
42018;SDS011;27703;51.980;5.848;2022-12-18T09:08:10;17.42;;;9.80;;
42018;SDS011;27703;51.980;5.848;2022-12-18T09:10:46;18.20;;;10.30;;
42018;SDS011;27703;51.980;5.848;2022-12-18T09:13:12;15.55;;;9.05;;
42018;SDS011;27703;51.980;5.848;2022-12-18T09:15:43;18.38;;;9.77;;
42018;SDS011;27703;51.980;5.848;2022-12-18T09:18:19;14.70;;;9.23;;
42018;SDS011;27703;51.980;5.848;2022-12-18T09:20:45;18.17;;;9.52;;
42018;SDS011;27703;51.980;5.848;2022-12-18T09:23:11;15.02;;;9.30;;
42018;SDS011;27703;51.980;5.848;2022-12-18T09:25:37;17.48;;;9.05;;
42018;SDS011;27703;51.980;5.848;2022-12-18T09:28:05;18.48;;;9.15;;
42018;SDS011;27703;51.980;5.848;2022-12-18T09:33:02;18.88;;;9.10;;
42018;SDS011;27703;51.980;5.848;2022-12-18T09:35:28;19.45;;;9.45;;
42018;SDS011;27703;51.980;5.848;2022-12-18T09:37:53;15.90;;;7.85;;
42018;SDS011;27703;51.980;5.848;2022-12-18T09:40:20;14.23;;;8.15;;
42018;SDS011;27703;51.980;5.848;2022-12-18T09:42:50;16.80;;;8.98;;
42018;SDS011;27703;51.980;5.848;2022-12-18T09:45:20;15.00;;;9.68;;
42018;SDS011;27703;51.980;5.848;2022-12-18T09:47:46;14.55;;;7.65;;
42018;SDS011;27703;51.980;5.848;2022-12-18T09:52:55;14.95;;;8.02;;
42018;SDS011;27703;51.980;5.848;2022-12-18T09:58:06;17.52;;;9.45;;
42018;SDS011;27703;51.980;5.848;2022-12-18T10:00:40;15.27;;;7.33;;
42018;SDS011;27703;51.980;5.848;2022-12-18T10:03:11;15.98;;;7.43;;
42018;SDS011;27703;51.980;5.848;2022-12-18T10:14:25;14.18;;;7.70;;
42018;SDS011;27703;51.980;5.848;2022-12-18T10:19:43;16.15;;;9.57;;
42018;SDS011;27703;51.980;5.848;2022-12-18T10:25:22;15.45;;;8.23;;
42018;SDS011;27703;51.980;5.848;2022-12-18T10:28:00;14.43;;;8.23;;
42018;SDS011;27703;51.980;5.848;2022-12-18T10:30:40;14.95;;;7.97;;
42018;SDS011;27703;51.980;5.848;2022-12-18T10:33:20;12.93;;;7.47;;
42018;SDS011;27703;51.980;5.848;2022-12-18T10:35:48;16.00;;;9.27;;
42018;SDS011;27703;51.980;5.848;2022-12-18T10:38:23;19.65;;;8.98;;
42018;SDS011;27703;51.980;5.848;2022-12-18T10:43:24;17.25;;;7.82;;
42018;SDS011;27703;51.980;5.848;2022-12-18T10:46:13;14.80;;;8.27;;
42018;SDS011;27703;51.980;5.848;2022-12-18T10:48:48;18.95;;;8.63;;
42018;SDS011;27703;51.980;5.848;2022-12-18T10:51:26;17.58;;;9.27;;
42018;SDS011;27703;51.980;5.848;2022-12-18T10:54:03;20.77;;;10.48;;
42018;SDS011;27703;51.980;5.848;2022-12-18T10:56:42;22.27;;;10.52;;
42018;SDS011;27703;51.980;5.848;2022-12-18T10:59:09;16.55;;;9.18;;
42018;SDS011;27703;51.980;5.848;2022-12-18T11:04:30;13.73;;;7.55;;
42018;SDS011;27703;51.980;5.848;2022-12-18T11:07:07;13.95;;;7.97;;
42018;SDS011;27703;51.980;5.848;2022-12-18T11:09:34;14.00;;;8.20;;
42018;SDS011;27703;51.980;5.848;2022-12-18T11:12:02;15.82;;;8.27;;
42018;SDS011;27703;51.980;5.848;2022-12-18T11:14:42;18.52;;;8.77;;
42018;SDS011;27703;51.980;5.848;2022-12-18T11:19:58;18.02;;;9.60;;
42018;SDS011;27703;51.980;5.848;2022-12-18T11:22:26;15.18;;;7.25;;
42018;SDS011;27703;51.980;5.848;2022-12-18T11:24:54;15.50;;;8.45;;
42018;SDS011;27703;51.980;5.848;2022-12-18T11:27:25;16.65;;;9.05;;
42018;SDS011;27703;51.980;5.848;2022-12-18T11:29:52;20.10;;;10.40;;
42018;SDS011;27703;51.980;5.848;2022-12-18T11:32:38;17.70;;;9.40;;
42018;SDS011;27703;51.980;5.848;2022-12-18T11:37:46;22.50;;;10.93;;
42018;SDS011;27703;51.980;5.848;2022-12-18T11:40:16;18.70;;;10.13;;
42018;SDS011;27703;51.980;5.848;2022-12-18T11:42:50;18.20;;;9.30;;
42018;SDS011;27703;51.980;5.848;2022-12-18T11:45:24;15.20;;;8.75;;
42018;SDS011;27703;51.980;5.848;2022-12-18T11:48:01;17.17;;;8.23;;
42018;SDS011;27703;51.980;5.848;2022-12-18T11:50:56;14.18;;;8.52;;
42018;SDS011;27703;51.980;5.848;2022-12-18T11:53:25;17.33;;;9.48;;
42018;SDS011;27703;51.980;5.848;2022-12-18T11:56:06;14.30;;;7.40;;
42018;SDS011;27703;51.980;5.848;2022-12-18T12:01:16;19.67;;;9.40;;
42018;SDS011;27703;51.980;5.848;2022-12-18T12:06:50;18.83;;;9.75;;
42018;SDS011;27703;51.980;5.848;2022-12-18T12:09:46;15.55;;;8.63;;
42018;SDS011;27703;51.980;5.848;2022-12-18T12:18:45;26.70;;;16.77;;
42018;SDS011;27703;51.980;5.848;2022-12-18T12:21:34;23.98;;;12.73;;
42018;SDS011;27703;51.980;5.848;2022-12-18T12:27:06;23.50;;;11.00;;
42018;SDS011;27703;51.980;5.848;2022-12-18T12:29:50;18.25;;;9.55;;
42018;SDS011;27703;51.980;5.848;2022-12-18T12:38:05;19.23;;;10.10;;
42018;SDS011;27703;51.980;5.848;2022-12-18T12:40:39;20.70;;;10.43;;
42018;SDS011;27703;51.980;5.848;2022-12-18T12:43:16;18.23;;;8.68;;
42018;SDS011;27703;51.980;5.848;2022-12-18T12:46:09;19.33;;;10.10;;
42018;SDS011;27703;51.980;5.848;2022-12-18T12:48:38;16.60;;;9.18;;
42018;SDS011;27703;51.980;5.848;2022-12-18T12:51:10;20.08;;;10.98;;
42018;SDS011;27703;51.980;5.848;2022-12-18T12:53:38;19.92;;;9.98;;
42018;SDS011;27703;51.980;5.848;2022-12-18T12:56:06;20.15;;;10.60;;
42018;SDS011;27703;51.980;5.848;2022-12-18T12:58:46;19.08;;;10.80;;
42018;SDS011;27703;51.980;5.848;2022-12-18T13:01:24;19.27;;;9.55;;
42018;SDS011;27703;51.980;5.848;2022-12-18T13:07:14;18.35;;;10.65;;
42018;SDS011;27703;51.980;5.848;2022-12-18T13:10:11;15.63;;;8.48;;
42018;SDS011;27703;51.980;5.848;2022-12-18T13:15:28;19.02;;;8.98;;
42018;SDS011;27703;51.980;5.848;2022-12-18T13:18:04;20.90;;;9.80;;
42018;SDS011;27703;51.980;5.848;2022-12-18T13:21:17;17.45;;;9.48;;
42018;SDS011;27703;51.980;5.848;2022-12-18T13:23:33;20.00;;;9.73;;
42018;SDS011;27703;51.980;5.848;2022-12-18T13:31:14;20.20;;;9.57;;
42018;SDS011;27703;51.980;5.848;2022-12-18T13:36:51;19.13;;;10.32;;
42018;SDS011;27703;51.980;5.848;2022-12-18T13:41:46;18.65;;;10.15;;
42018;SDS011;27703;51.980;5.848;2022-12-18T13:47:01;20.48;;;10.30;;
42018;SDS011;27703;51.980;5.848;2022-12-18T13:49:39;19.63;;;10.13;;
42018;SDS011;27703;51.980;5.848;2022-12-18T13:52:17;19.05;;;11.07;;
42018;SDS011;27703;51.980;5.848;2022-12-18T13:54:50;20.00;;;10.93;;
42018;SDS011;27703;51.980;5.848;2022-12-18T13:57:25;21.02;;;10.60;;
42018;SDS011;27703;51.980;5.848;2022-12-18T13:59:53;18.15;;;9.73;;
42018;SDS011;27703;51.980;5.848;2022-12-18T14:02:23;21.08;;;11.32;;
42018;SDS011;27703;51.980;5.848;2022-12-18T14:04:50;18.73;;;9.80;;
42018;SDS011;27703;51.980;5.848;2022-12-18T14:07:27;21.33;;;10.32;;
42018;SDS011;27703;51.980;5.848;2022-12-18T14:09:57;17.17;;;9.25;;
42018;SDS011;27703;51.980;5.848;2022-12-18T14:12:34;19.08;;;9.30;;
42018;SDS011;27703;51.980;5.848;2022-12-18T14:15:23;18.23;;;9.52;;
42018;SDS011;27703;51.980;5.848;2022-12-18T14:18:00;21.27;;;10.27;;
42018;SDS011;27703;51.980;5.848;2022-12-18T14:20:34;20.40;;;9.02;;
42018;SDS011;27703;51.980;5.848;2022-12-18T14:23:00;19.52;;;10.10;;
42018;SDS011;27703;51.980;5.848;2022-12-18T14:25:29;18.73;;;9.73;;
42018;SDS011;27703;51.980;5.848;2022-12-18T14:33:04;21.05;;;11.07;;
42018;SDS011;27703;51.980;5.848;2022-12-18T14:35:37;18.00;;;10.15;;
42018;SDS011;27703;51.980;5.848;2022-12-18T14:38:18;18.60;;;9.35;;
42018;SDS011;27703;51.980;5.848;2022-12-18T14:41:01;22.05;;;10.93;;
42018;SDS011;27703;51.980;5.848;2022-12-18T14:43:38;21.55;;;10.82;;
42018;SDS011;27703;51.980;5.848;2022-12-18T14:46:06;18.88;;;9.98;;
42018;SDS011;27703;51.980;5.848;2022-12-18T14:49:02;22.48;;;12.73;;
42018;SDS011;27703;51.980;5.848;2022-12-18T14:51:47;18.77;;;11.02;;
42018;SDS011;27703;51.980;5.848;2022-12-18T14:54:16;21.30;;;11.07;;
42018;SDS011;27703;51.980;5.848;2022-12-18T14:56:44;19.00;;;10.70;;
42018;SDS011;27703;51.980;5.848;2022-12-18T14:59:14;20.77;;;9.38;;
42018;SDS011;27703;51.980;5.848;2022-12-18T15:05:02;18.80;;;9.95;;
42018;SDS011;27703;51.980;5.848;2022-12-18T15:07:42;24.70;;;11.98;;
42018;SDS011;27703;51.980;5.848;2022-12-18T15:12:48;20.55;;;9.82;;
42018;SDS011;27703;51.980;5.848;2022-12-18T15:18:01;22.98;;;11.05;;
42018;SDS011;27703;51.980;5.848;2022-12-18T15:20:27;17.92;;;10.98;;
42018;SDS011;27703;51.980;5.848;2022-12-18T15:22:56;20.50;;;11.48;;
42018;SDS011;27703;51.980;5.848;2022-12-18T15:25:25;19.85;;;10.07;;
42018;SDS011;27703;51.980;5.848;2022-12-18T15:28:01;18.98;;;10.13;;
42018;SDS011;27703;51.980;5.848;2022-12-18T15:30:27;17.45;;;9.15;;
42018;SDS011;27703;51.980;5.848;2022-12-18T15:33:16;19.10;;;10.82;;
42018;SDS011;27703;51.980;5.848;2022-12-18T15:35:55;19.45;;;10.57;;
42018;SDS011;27703;51.980;5.848;2022-12-18T15:38:24;17.45;;;10.35;;
42018;SDS011;27703;51.980;5.848;2022-12-18T15:40:50;22.23;;;11.75;;
42018;SDS011;27703;51.980;5.848;2022-12-18T15:43:17;20.92;;;10.65;;
42018;SDS011;27703;51.980;5.848;2022-12-18T15:46:11;19.58;;;10.98;;
42018;SDS011;27703;51.980;5.848;2022-12-18T15:48:43;19.80;;;11.20;;
42018;SDS011;27703;51.980;5.848;2022-12-18T15:51:20;18.85;;;10.43;;
42018;SDS011;27703;51.980;5.848;2022-12-18T15:54:13;24.55;;;11.27;;
42018;SDS011;27703;51.980;5.848;2022-12-18T15:56:41;18.48;;;10.23;;
42018;SDS011;27703;51.980;5.848;2022-12-18T15:59:25;20.67;;;10.75;;
42018;SDS011;27703;51.980;5.848;2022-12-18T16:01:51;20.83;;;11.32;;
42018;SDS011;27703;51.980;5.848;2022-12-18T16:04:20;22.15;;;10.95;;
42018;SDS011;27703;51.980;5.848;2022-12-18T16:06:47;23.23;;;12.20;;
42018;SDS011;27703;51.980;5.848;2022-12-18T16:09:13;26.90;;;13.50;;
42018;SDS011;27703;51.980;5.848;2022-12-18T16:11:39;27.33;;;14.73;;
42018;SDS011;27703;51.980;5.848;2022-12-18T16:16:47;21.45;;;11.70;;
42018;SDS011;27703;51.980;5.848;2022-12-18T16:19:15;24.50;;;12.77;;
42018;SDS011;27703;51.980;5.848;2022-12-18T16:21:41;28.00;;;13.50;;
42018;SDS011;27703;51.980;5.848;2022-12-18T16:24:17;21.25;;;10.93;;
42018;SDS011;27703;51.980;5.848;2022-12-18T16:26:48;22.90;;;12.45;;
42018;SDS011;27703;51.980;5.848;2022-12-18T16:29:14;24.20;;;12.85;;
42018;SDS011;27703;51.980;5.848;2022-12-18T16:31:40;29.20;;;12.95;;
42018;SDS011;27703;51.980;5.848;2022-12-18T16:34:09;26.65;;;13.20;;